createdAt,value
2022-10-06T00:00:11.731Z,17
2022-10-06T00:03:11.843Z,17.1
2022-10-06T00:06:11.636Z,17.2
2022-10-06T00:09:11.661Z,17.4
2022-10-06T00:12:11.675Z,17.5
2022-10-06T00:15:11.667Z,17.5
2022-10-06T00:18:11.799Z,17.6
2022-10-06T00:21:11.610Z,17.6
2022-10-06T00:24:11.722Z,17.6
2022-10-06T00:27:11.681Z,17.8
2022-10-06T00:30:11.712Z,17.8
2022-10-06T00:33:11.660Z,17.8
2022-10-06T00:36:11.767Z,17.9
2022-10-06T00:39:11.696Z,17.9
2022-10-06T00:42:11.716Z,17.9
2022-10-06T00:45:11.706Z,17.9
2022-10-06T00:48:11.676Z,17.9
2022-10-06T00:51:11.673Z,17.9
2022-10-06T00:54:12.042Z,17.9
2022-10-06T00:57:11.654Z,17.9
2022-10-06T01:00:11.680Z,17.9
2022-10-06T01:03:12.184Z,17.9
2022-10-06T01:06:11.666Z,17.9
2022-10-06T01:09:11.682Z,17.9
2022-10-06T01:12:11.667Z,17.9
2022-10-06T01:15:11.697Z,17.9
2022-10-06T01:18:11.678Z,17.8
2022-10-06T01:21:11.783Z,17.2
2022-10-06T01:24:11.764Z,16.9
2022-10-06T01:27:11.743Z,16.3
2022-10-06T01:30:11.706Z,15.5
2022-10-06T01:33:11.711Z,15
2022-10-06T01:36:11.682Z,14.5
2022-10-06T01:39:11.782Z,14.1
2022-10-06T01:42:11.783Z,13.9
2022-10-06T01:45:11.747Z,13.6
2022-10-06T01:48:11.655Z,13.5
2022-10-06T01:51:11.694Z,13.4
2022-10-06T01:54:11.716Z,13.3
2022-10-06T01:57:11.752Z,13.1
2022-10-06T02:00:11.748Z,13.1
2022-10-06T02:03:11.637Z,13.1
2022-10-06T02:06:12.486Z,13.1
2022-10-06T02:09:11.734Z,13.1
2022-10-06T02:12:11.770Z,13.1
2022-10-06T02:15:11.799Z,13.1
2022-10-06T02:18:11.785Z,13.1
2022-10-06T02:21:11.734Z,13.1
2022-10-06T02:24:11.843Z,13.1
2022-10-06T02:27:11.679Z,13.1
2022-10-06T02:30:11.723Z,13.1
2022-10-06T02:33:11.671Z,13.1
2022-10-06T02:36:11.677Z,13.1
2022-10-06T02:39:11.695Z,13.1
2022-10-06T02:42:11.644Z,13.1
2022-10-06T02:45:11.639Z,13.1
2022-10-06T02:48:11.633Z,13.1
2022-10-06T02:51:11.804Z,13.1
2022-10-06T02:54:11.795Z,13.1
2022-10-06T02:57:11.687Z,13.1
2022-10-06T03:00:11.760Z,13.1
2022-10-06T03:03:12.023Z,13.1
2022-10-06T03:06:11.684Z,13.1
2022-10-06T03:09:11.686Z,13.1
2022-10-06T03:12:11.742Z,13.1
2022-10-06T03:15:11.663Z,13
2022-10-06T03:18:11.733Z,13
2022-10-06T03:21:11.669Z,13
2022-10-06T03:24:11.690Z,13
2022-10-06T03:27:11.630Z,12.9
2022-10-06T03:30:11.856Z,12.9
2022-10-06T03:33:11.641Z,12.8
2022-10-06T03:36:11.639Z,12.6
2022-10-06T03:39:11.828Z,12.6
2022-10-06T03:42:11.648Z,12.8
2022-10-06T03:45:11.706Z,12.9
2022-10-06T03:48:11.702Z,12.8
2022-10-06T03:51:11.643Z,12.6
2022-10-06T03:54:11.770Z,12.5
2022-10-06T03:57:11.624Z,12.4
2022-10-06T04:00:11.850Z,12.4
2022-10-06T04:03:11.740Z,12.2
2022-10-06T04:06:11.895Z,12.1
2022-10-06T04:09:18.069Z,12
2022-10-06T04:12:11.722Z,12
2022-10-06T04:15:11.761Z,12
2022-10-06T04:18:11.668Z,11.9
2022-10-06T04:21:11.623Z,11.9
2022-10-06T04:24:11.792Z,11.9
2022-10-06T04:27:11.687Z,11.8
2022-10-06T04:30:11.757Z,11.6
2022-10-06T04:33:11.677Z,11.6
2022-10-06T04:36:11.625Z,11.5
2022-10-06T04:39:11.643Z,11.5
2022-10-06T04:42:11.720Z,11.4
2022-10-06T04:45:11.752Z,11.3
2022-10-06T04:48:14.426Z,11.3
2022-10-06T04:51:11.660Z,11.1
2022-10-06T04:54:11.662Z,11.1
2022-10-06T04:57:11.709Z,11.1
2022-10-06T05:00:23.981Z,11
2022-10-06T05:03:11.693Z,11
2022-10-06T05:06:11.700Z,10.9
2022-10-06T05:09:11.736Z,10.9
2022-10-06T05:12:11.707Z,11
2022-10-06T05:15:11.639Z,11
2022-10-06T05:18:11.698Z,11
2022-10-06T05:21:17.888Z,11
2022-10-06T05:24:12.068Z,11.1
2022-10-06T05:27:13.279Z,11.1
2022-10-06T05:30:11.903Z,11.3
2022-10-06T05:33:11.639Z,11.3
2022-10-06T05:36:11.755Z,11.4
2022-10-06T05:39:11.777Z,11.4
2022-10-06T05:42:11.690Z,11.4
2022-10-06T05:45:11.740Z,11.5
2022-10-06T05:48:11.672Z,11.6
2022-10-06T05:51:11.701Z,11.8
2022-10-06T05:54:11.726Z,11.9
2022-10-06T05:57:11.833Z,12
2022-10-06T06:00:11.818Z,12
2022-10-06T06:03:12.045Z,12.1
2022-10-06T06:06:12.233Z,12.2
2022-10-06T06:09:11.757Z,12.5
2022-10-06T06:12:11.788Z,12.6
2022-10-06T06:15:11.747Z,13.1
2022-10-06T06:18:11.670Z,13.6
2022-10-06T06:21:11.717Z,13.8
2022-10-06T06:24:11.655Z,14.3
2022-10-06T06:27:11.744Z,14.4
2022-10-06T06:30:11.773Z,14.7
2022-10-06T06:33:11.713Z,14.9
2022-10-06T06:36:11.657Z,15
2022-10-06T06:39:11.711Z,15.1
2022-10-06T06:42:11.790Z,15.5
2022-10-06T06:45:11.739Z,15.6
2022-10-06T06:48:11.737Z,15.6
2022-10-06T06:51:11.754Z,15.6
2022-10-06T06:54:11.835Z,15.4
2022-10-06T06:57:11.686Z,14.9
2022-10-06T07:00:11.813Z,14.5
2022-10-06T07:03:11.720Z,14.4
2022-10-06T07:06:11.750Z,14.3
2022-10-06T07:09:11.678Z,16.6
2022-10-06T07:12:11.733Z,20.1
2022-10-06T07:15:12.066Z,22.6
2022-10-06T07:18:11.848Z,24.3
2022-10-06T07:21:11.749Z,22.9
2022-10-06T07:24:11.711Z,20.9
2022-10-06T07:27:11.714Z,20.9
2022-10-06T07:30:11.772Z,24
2022-10-06T07:33:11.729Z,25.5
2022-10-06T07:36:11.683Z,25.9
2022-10-06T07:39:11.754Z,27.8
2022-10-06T07:42:11.764Z,29
2022-10-06T07:45:11.710Z,30.1
2022-10-06T07:48:11.906Z,31.1
2022-10-06T07:51:11.776Z,31.6
2022-10-06T07:54:11.638Z,30.8
2022-10-06T07:57:11.802Z,31.6
2022-10-06T08:00:14.584Z,32.6
2022-10-06T08:03:12.365Z,33.4
2022-10-06T08:06:11.683Z,34
2022-10-06T08:09:11.720Z,34.2
2022-10-06T08:12:11.916Z,34.7
2022-10-06T08:15:18.522Z,34.9
2022-10-06T08:18:50.339Z,35.2
2022-10-06T08:21:11.685Z,35.6
2022-10-06T08:24:11.727Z,35.9
2022-10-06T08:27:11.783Z,36.2
2022-10-06T08:30:12.736Z,35.7
2022-10-06T08:33:11.726Z,36.1
2022-10-06T08:36:11.700Z,36.2
2022-10-06T08:39:11.847Z,37.5
2022-10-06T08:42:11.771Z,37.5
2022-10-06T08:45:11.708Z,37.5
2022-10-06T08:48:11.903Z,36.1
2022-10-06T08:51:11.800Z,35.6
2022-10-06T08:54:11.716Z,32.9
2022-10-06T08:57:11.709Z,31.2
2022-10-06T09:00:11.795Z,29.9
2022-10-06T09:03:11.820Z,29.1
2022-10-06T09:06:11.731Z,31.5
2022-10-06T09:09:11.820Z,33.4
2022-10-06T09:12:11.841Z,34
2022-10-06T09:15:11.806Z,31.6
2022-10-06T09:18:11.830Z,30.3
2022-10-06T09:21:11.805Z,29.9
2022-10-06T09:24:11.730Z,32.4
2022-10-06T09:27:11.749Z,32.1
2022-10-06T09:30:11.850Z,35.7
2022-10-06T09:33:11.706Z,37.4
2022-10-06T09:36:11.740Z,33.1
2022-10-06T09:39:11.916Z,32.1
2022-10-06T09:42:11.932Z,32.9
2022-10-06T09:45:11.763Z,31.9
2022-10-06T09:48:11.724Z,33.7
2022-10-06T09:51:11.781Z,33.6
2022-10-06T09:54:11.803Z,36.4
2022-10-06T09:57:11.761Z,37.6
2022-10-06T10:00:11.841Z,39.1
2022-10-06T10:03:12.264Z,40.1
2022-10-06T10:06:11.710Z,40.6
2022-10-06T10:09:11.801Z,41.2
2022-10-06T10:12:11.926Z,41.2
2022-10-06T10:15:11.737Z,40.9
2022-10-06T10:18:11.986Z,40
2022-10-06T10:21:11.757Z,40.5
2022-10-06T10:24:11.835Z,40.4
2022-10-06T10:27:11.813Z,40.5
2022-10-06T10:30:11.875Z,40.8
2022-10-06T10:33:11.885Z,40.5
2022-10-06T10:36:11.824Z,40.5
2022-10-06T10:39:11.639Z,40.8
2022-10-06T10:42:11.829Z,40.9
2022-10-06T10:45:11.939Z,40.9
2022-10-06T10:48:11.747Z,40.8
2022-10-06T10:51:11.783Z,40.8
2022-10-06T10:54:11.746Z,41.1
2022-10-06T10:57:11.689Z,41.2
2022-10-06T11:00:11.811Z,41.4
2022-10-06T11:06:11.753Z,41.2
2022-10-06T11:09:11.729Z,41.1
2022-10-06T11:12:11.852Z,40.9
2022-10-06T11:15:12.732Z,40.8
2022-10-06T11:18:11.882Z,40.4
2022-10-06T11:21:11.692Z,37
2022-10-06T11:24:11.777Z,34.5
2022-10-06T11:27:27.095Z,36.5
2022-10-06T11:30:12.448Z,37.7
2022-10-06T11:33:11.764Z,39.1
2022-10-06T11:36:11.808Z,39.1
2022-10-06T11:39:11.814Z,40.1
2022-10-06T11:42:11.881Z,41
2022-10-06T11:45:12.739Z,41.5
2022-10-06T11:48:11.744Z,42.2
2022-10-06T11:51:11.695Z,42.5
2022-10-06T11:54:11.840Z,42.4
2022-10-06T11:57:11.755Z,42.2
2022-10-06T12:00:11.884Z,42.1
2022-10-06T12:03:12.661Z,41.5
2022-10-06T12:06:11.780Z,38.7
2022-10-06T12:09:11.749Z,36.1
2022-10-06T12:12:11.786Z,34.5
2022-10-06T12:18:11.847Z,38
2022-10-06T12:21:11.697Z,38.6
2022-10-06T12:27:11.757Z,40.2
2022-10-06T12:30:13.384Z,40.2
2022-10-06T12:33:11.797Z,40.5
2022-10-06T12:36:11.820Z,40.8
2022-10-06T12:39:11.824Z,40.9
2022-10-06T12:42:11.747Z,41
2022-10-06T12:45:12.718Z,40.9
2022-10-06T12:48:11.777Z,40.6
2022-10-06T12:51:11.693Z,40.2
2022-10-06T12:54:11.781Z,40.4
2022-10-06T12:57:11.712Z,40.2
2022-10-06T13:00:12.109Z,40.4
2022-10-06T13:03:11.717Z,40.4
2022-10-06T13:06:11.704Z,40.5
2022-10-06T13:09:11.791Z,40.6
2022-10-06T13:12:11.735Z,40.8
2022-10-06T13:15:12.409Z,40.9
2022-10-06T13:18:11.756Z,40.9
2022-10-06T13:21:11.738Z,40.9
2022-10-06T13:24:11.743Z,40.9
2022-10-06T13:27:11.732Z,40.6
2022-10-06T13:30:12.610Z,40.4
2022-10-06T13:33:11.737Z,40.2
2022-10-06T13:36:11.791Z,40
2022-10-06T13:39:11.760Z,39.9
2022-10-06T13:42:11.791Z,39.7
2022-10-06T13:45:11.891Z,39.6
2022-10-06T13:48:11.684Z,39.5
2022-10-06T13:51:11.874Z,39.1
2022-10-06T13:54:11.765Z,39
2022-10-06T13:57:11.758Z,38.7
2022-10-06T14:00:12.943Z,38.7
2022-10-06T14:03:12.335Z,38.6
2022-10-06T14:06:11.725Z,38.6
2022-10-06T14:09:11.772Z,38.4
2022-10-06T14:12:11.747Z,36.7
2022-10-06T14:15:12.703Z,36.9
2022-10-06T14:18:11.821Z,36.6
2022-10-06T14:21:11.726Z,36.6
2022-10-06T14:24:18.985Z,36.7
2022-10-06T14:27:11.743Z,36.6
2022-10-06T14:30:13.017Z,36.5
2022-10-06T14:33:11.766Z,35.7
2022-10-06T14:36:11.720Z,35.9
2022-10-06T14:39:11.788Z,35.9
2022-10-06T14:42:11.733Z,35.6
2022-10-06T14:45:12.573Z,35.4
2022-10-06T14:48:11.694Z,35.1
2022-10-06T14:51:11.733Z,34.7
2022-10-06T14:54:11.714Z,34.4
2022-10-06T14:57:11.723Z,33.9
2022-10-06T15:00:13.039Z,33.5
2022-10-06T15:03:12.460Z,33.2
2022-10-06T15:06:11.735Z,32.9
2022-10-06T15:09:11.730Z,32.5
2022-10-06T15:12:11.713Z,32.1
2022-10-06T15:15:11.736Z,31.6
2022-10-06T15:18:11.721Z,31.4
2022-10-06T15:21:11.797Z,31
2022-10-06T15:24:11.739Z,30.4
2022-10-06T15:27:11.803Z,29.4
2022-10-06T15:30:11.812Z,28.4
2022-10-06T15:33:11.781Z,27
2022-10-06T15:36:11.704Z,24.4
2022-10-06T15:39:11.771Z,22.6
2022-10-06T15:42:13.214Z,21.4
2022-10-06T15:45:18.679Z,20.4
2022-10-06T15:48:12.068Z,19.8
2022-10-06T15:51:11.735Z,19.1
2022-10-06T15:54:11.834Z,18.6
2022-10-06T15:57:15.184Z,18.3
2022-10-06T16:00:11.777Z,18
2022-10-06T16:03:12.306Z,17.6
2022-10-06T16:06:11.786Z,17.5
2022-10-06T16:09:11.835Z,17.2
2022-10-06T16:12:11.692Z,17.8
2022-10-06T16:15:11.712Z,18.8
2022-10-06T16:18:11.749Z,19
2022-10-06T16:21:11.699Z,18.4
2022-10-06T16:24:11.778Z,17.2
2022-10-06T16:27:11.757Z,16.5
2022-10-06T16:30:11.852Z,15.9
2022-10-06T16:33:11.705Z,15.5
2022-10-06T16:36:11.691Z,15
2022-10-06T16:39:11.765Z,14.6
2022-10-06T16:42:11.923Z,14.3
2022-10-06T16:45:11.843Z,14
2022-10-06T16:48:11.673Z,13.6
2022-10-06T16:51:11.717Z,13.4
2022-10-06T16:54:11.704Z,13.1
2022-10-06T16:57:11.707Z,12.8
2022-10-06T17:00:11.646Z,12.5
2022-10-06T17:03:11.717Z,12.2
2022-10-06T17:06:11.699Z,12.1
2022-10-06T17:09:11.683Z,11.9
2022-10-06T17:12:11.709Z,11.6
2022-10-06T17:15:11.644Z,11.5
2022-10-06T17:18:11.708Z,11.3
2022-10-06T17:21:59.637Z,11.1
2022-10-06T17:24:11.745Z,11
2022-10-06T17:27:11.663Z,10.8
2022-10-06T17:30:11.662Z,10.6
2022-10-06T17:33:11.687Z,10.5
2022-10-06T17:36:11.684Z,10.4
2022-10-06T17:39:11.738Z,10.1
2022-10-06T17:42:11.695Z,10
2022-10-06T17:45:11.691Z,9.9
2022-10-06T17:48:11.720Z,9.8
2022-10-06T17:51:11.698Z,9.6
2022-10-06T17:54:11.687Z,9.5
2022-10-06T17:57:11.699Z,9.4
2022-10-06T18:00:11.687Z,9.3
2022-10-06T18:03:11.667Z,9.1
2022-10-06T18:06:11.711Z,9
2022-10-06T18:09:11.664Z,8.9
2022-10-06T18:12:11.707Z,8.8
2022-10-06T18:15:11.676Z,8.6
2022-10-06T18:18:11.665Z,8.5
2022-10-06T18:21:11.648Z,8.3
2022-10-06T18:24:11.646Z,8.1
2022-10-06T18:27:11.723Z,8
2022-10-06T18:30:11.692Z,7.9
2022-10-06T18:36:25.948Z,7.6
2022-10-06T18:39:11.702Z,7.5
2022-10-06T18:42:11.683Z,7.5
2022-10-06T18:45:11.727Z,7.4
2022-10-06T18:48:11.648Z,7.2
2022-10-06T18:51:11.641Z,7.2
2022-10-06T18:54:11.713Z,7.1
2022-10-06T18:57:11.623Z,7
2022-10-06T19:00:11.732Z,6.9
2022-10-06T19:03:11.624Z,6.9
2022-10-06T19:06:11.720Z,6.7
2022-10-06T19:09:11.618Z,6.7
2022-10-06T19:12:11.706Z,6.6
2022-10-06T19:15:11.765Z,6.6
2022-10-06T19:18:11.685Z,6.5
2022-10-06T19:21:17.438Z,6.5
2022-10-06T19:24:11.681Z,6.5
2022-10-06T19:27:11.675Z,6.5
2022-10-06T19:30:11.750Z,6.5
2022-10-06T19:33:11.692Z,6.5
2022-10-06T19:36:11.667Z,6.5
2022-10-06T19:39:11.651Z,6.4
2022-10-06T19:42:11.666Z,6.4
2022-10-06T19:45:11.906Z,6.4
2022-10-06T19:48:11.663Z,6.4
2022-10-06T19:51:11.664Z,6.4
2022-10-06T19:54:11.666Z,6.2
2022-10-06T19:57:16.839Z,6.2
2022-10-06T20:00:11.773Z,6.1
2022-10-06T20:03:11.617Z,6.1
2022-10-06T20:06:11.678Z,6
2022-10-06T20:09:11.668Z,6.1
2022-10-06T20:12:11.687Z,6.2
2022-10-06T20:15:11.654Z,6.2
2022-10-06T20:18:11.672Z,6.4
2022-10-06T20:21:12.163Z,6.4
2022-10-06T20:24:11.687Z,6.5
2022-10-06T20:27:11.721Z,6.6
2022-10-06T20:30:11.800Z,6.7
2022-10-06T20:33:11.603Z,6.9
2022-10-06T20:36:11.673Z,6.9
2022-10-06T20:39:11.713Z,6.9
2022-10-06T20:42:18.019Z,6.9
2022-10-06T20:45:11.794Z,6.9
2022-10-06T20:48:11.711Z,6.9
2022-10-06T20:51:11.678Z,6.7
2022-10-06T20:54:11.713Z,6.7
2022-10-06T20:57:11.823Z,6.6
2022-10-06T21:00:11.739Z,6.5
2022-10-06T21:03:12.585Z,6.4
2022-10-06T21:06:12.241Z,6.2
2022-10-06T21:09:11.988Z,6.1
2022-10-06T21:12:11.981Z,6
2022-10-06T21:15:11.954Z,6.1
2022-10-06T21:18:12.023Z,6.1
2022-10-06T21:21:11.968Z,6.1
2022-10-06T21:24:11.966Z,6.1
2022-10-06T21:27:11.991Z,6.1
2022-10-06T21:30:12.026Z,6
2022-10-06T21:33:11.960Z,5.9
2022-10-06T21:36:11.978Z,5.7
2022-10-06T21:39:12.043Z,5.6
2022-10-06T21:42:11.993Z,5.5
2022-10-06T21:45:11.951Z,5.5
2022-10-06T21:48:11.989Z,5.4
2022-10-06T21:51:11.995Z,5.2
2022-10-06T21:54:12.030Z,5.1
2022-10-06T21:57:11.942Z,5
2022-10-06T22:00:13.049Z,5
2022-10-06T22:03:12.452Z,4.9
2022-10-06T22:06:15.524Z,4.7
2022-10-06T22:09:12.050Z,4.7
2022-10-06T22:12:11.923Z,4.7
2022-10-06T22:15:11.933Z,4.6
2022-10-06T22:18:11.973Z,4.5
2022-10-06T22:21:11.944Z,4.5
2022-10-06T22:24:12.006Z,4.5
2022-10-06T22:27:12.043Z,4.4
2022-10-06T22:30:11.951Z,4.4
2022-10-06T22:33:11.996Z,4.4
2022-10-06T22:36:11.973Z,4.5
2022-10-06T22:39:12.009Z,4.4
2022-10-06T22:42:11.949Z,4.4
2022-10-06T22:45:12.009Z,4.4
2022-10-06T22:48:11.946Z,4.4
2022-10-06T22:51:11.972Z,4.5
2022-10-06T22:54:11.978Z,4.6
2022-10-06T22:57:11.923Z,4.6
2022-10-06T23:00:12.084Z,4.7
2022-10-06T23:03:12.448Z,4.7
2022-10-06T23:06:11.966Z,4.9
2022-10-06T23:09:11.968Z,4.7
2022-10-06T23:12:11.975Z,4.7
2022-10-06T23:15:11.958Z,4.7
2022-10-06T23:18:12.012Z,4.6
2022-10-06T23:21:11.957Z,4.5
2022-10-06T23:24:12.007Z,4.5
2022-10-06T23:27:11.967Z,4.5
2022-10-06T23:30:11.960Z,4.5
2022-10-06T23:33:11.952Z,4.4
2022-10-06T23:36:12.005Z,4.4
2022-10-06T23:39:11.972Z,4.2
2022-10-06T23:42:11.932Z,4.2
2022-10-06T23:45:12.006Z,4.1
2022-10-06T23:48:12.010Z,4.1
2022-10-06T23:51:12.035Z,4.1
2022-10-06T23:54:12.037Z,4.2
2022-10-06T23:57:11.968Z,4.2
